KCCA/CCA METAR and TAF weather

Enter ICAO airport designator
Station Type Date Time Source
KCCA METAR 2018/07/21 23:15 UTC NOAA

KCCA 212315Z AUTO 30006G12KT 10SM CLR 36/16 A2985 RMK


Station Type Date Time Source
KCCA Decoded METAR 2018/07/21 23:15 UTC NOAA

Station name not available
Jul 21, 2018 - 07:15 PM EDT / 2018.07.21 2315 UTC
Wind: from the WNW (300 degrees) at 7 MPH (6 KT) gusting to 14 MPH (12 KT):0
Visibility: 10 mile(s):0
Sky conditions: clear
Temperature: 96 F (36 C)
Heat index: 95.9 F (35.5 C):1
Dew Point: 60 F (16 C)
Relative Humidity: 30%
Pressure (altimeter): 29.85 in. Hg (1010 hPa)
ob: KCCA 212315Z AUTO 30006G12KT 10SM C

Station Type Date Time Source
KCCA TAF UTC NOAA

Error!


Example: see airport list